Time;durP1;ratioP1;P1;durP2;ratioP2;P2;SDS_P1;SDS_P2;PMS_P1;PMS_P2;Temp;Humidity;BMP_temperature;BMP_pressure;BME280_temperature;BME280_humidity;BME280_pressure;Samples;Min_cycle;Max_cycle;Signal;HPM_P1;HPM_P2
2021/01/06 00:00:53;;;;;;;75.10;44.77;;;102.40;2227.20;;;;;;4981934;28;20033;-74
2021/01/06 00:03:21;;;;;;;91.77;51.57;;;102.40;2227.20;;;;;;4983555;28;20471;-73
2021/01/06 00:05:55;;;;;;;94.40;53.03;;;102.40;2227.20;;;;;;4981626;28;20058;-73
2021/01/06 00:08:37;;;;;;;77.33;45.87;;;102.40;2227.20;;;;;;4982876;28;20380;-72
2021/01/06 00:11:03;;;;;;;76.33;44.37;;;102.40;2227.20;;;;;;4981659;28;20019;-78
2021/01/06 00:13:29;;;;;;;73.80;44.17;;;102.40;2227.20;;;;;;4984447;28;20023;-72
2021/01/06 00:15:56;;;;;;;70.67;41.90;;;102.40;2227.20;;;;;;4985642;28;20023;-74
2021/01/06 00:18:24;;;;;;;81.10;46.37;;;102.40;2227.20;;;;;;4980340;28;20035;-72
2021/01/06 00:21:07;;;;;;;90.03;50.87;;;102.40;2227.20;;;;;;4991444;28;20046;-79
2021/01/06 00:23:33;;;;;;;81.07;46.63;;;102.40;2227.20;;;;;;4988332;28;20030;-73
2021/01/06 00:26:00;;;;;;;69.67;43.23;;;102.40;2227.20;;;;;;4983686;28;20045;-72
2021/01/06 00:28:29;;;;;;;78.77;48.03;;;77.70;2227.20;;;;;;4987179;28;20054;-73
2021/01/06 00:30:56;;;;;;;78.17;47.57;;;77.70;2227.20;;;;;;4982682;28;20113;-78
2021/01/06 00:33:26;;;;;;;75.87;46.27;;;77.70;2227.20;;;;;;4980813;28;20027;-73
2021/01/06 00:35:58;;;;;;;72.23;42.80;;;77.70;2227.20;;;;;;4986034;28;20011;-75
2021/01/06 00:38:28;;;;;;;72.17;43.27;;;77.70;2227.20;;;;;;4985494;28;20035;-73
2021/01/06 00:41:09;;;;;;;84.73;50.03;;;77.60;2227.20;;;;;;4987146;28;20015;-78
2021/01/06 00:43:35;;;;;;;78.87;46.40;;;77.70;2227.20;;;;;;4981836;28;20543;-79
2021/01/06 00:46:01;;;;;;;81.53;46.50;;;77.70;2227.20;;;;;;4984728;28;20015;-73
2021/01/06 00:48:27;;;;;;;68.63;43.03;;;77.70;2227.20;;;;;;4987713;28;20104;-73
2021/01/06 00:50:59;;;;;;;69.70;43.03;;;77.70;2227.20;;;;;;4988272;28;20015;-76
2021/01/06 00:53:36;;;;;;;73.87;45.23;;;77.70;2227.20;;;;;;4991481;28;20042;-79
2021/01/06 00:56:02;;;;;;;66.83;40.70;;;77.70;2227.20;;;;;;4987997;28;20086;-78
2021/01/06 00:58:28;;;;;;;68.20;41.27;;;77.70;2227.20;;;;;;4996558;28;20039;-73
2021/01/06 01:00:54;;;;;;;68.80;39.87;;;77.70;2227.20;;;;;;4994171;28;20031;-75
2021/01/06 01:03:20;;;;;;;65.70;38.93;;;77.70;2227.20;;;;;;4995008;28;20031;-77
2021/01/06 01:05:46;;;;;;;64.63;40.30;;;77.70;2227.20;;;;;;4996162;28;20074;-79
2021/01/06 01:08:13;;;;;;;66.93;40.33;;;77.60;2227.20;;;;;;4996510;28;20027;-79
2021/01/06 01:10:44;;;;;;;66.77;39.43;;;77.60;2227.20;;;;;;4996077;28;20034;-74
2021/01/06 01:13:17;;;;;;;69.07;41.00;;;77.60;2227.20;;;;;;4996921;28;20027;-79
2021/01/06 01:15:56;;;;;;;62.03;38.17;;;77.50;2227.20;;;;;;4997172;28;20029;-78
2021/01/06 01:18:28;;;;;;;72.03;42.80;;;77.50;2227.20;;;;;;4996177;28;20027;-77
2021/01/06 01:21:07;;;;;;;63.97;39.67;;;77.50;2227.20;;;;;;4995364;28;20026;-77
2021/01/06 01:23:32;;;;;;;67.47;39.37;;;77.50;2227.20;;;;;;4986457;28;20015;-78
2021/01/06 01:25:58;;;;;;;63.80;40.50;;;77.50;2227.20;;;;;;4985327;28;20026;-73
2021/01/06 01:28:28;;;;;;;66.17;39.70;;;77.50;2227.20;;;;;;4983847;28;20030;-73
2021/01/06 01:30:56;;;;;;;62.97;38.50;;;77.50;2227.20;;;;;;4989745;28;20002;-77
2021/01/06 01:33:26;;;;;;;63.70;36.33;;;77.50;2227.20;;;;;;4989283;28;20034;-75
2021/01/06 01:35:52;;;;;;;69.20;38.33;;;77.50;2227.20;;;;;;4983463;28;20078;-76
2021/01/06 01:38:25;;;;;;;61.10;38.83;;;77.50;2227.20;;;;;;4980460;28;20027;-73
2021/01/06 01:41:12;;;;;;;62.60;38.67;;;77.50;2227.20;;;;;;4979527;28;20521;-73
2021/01/06 01:43:40;;;;;;;63.93;38.33;;;77.50;2227.20;;;;;;4980796;28;20023;-73
2021/01/06 01:46:07;;;;;;;65.97;39.90;;;77.50;2227.20;;;;;;4981096;28;20034;-73
2021/01/06 01:48:44;;;;;;;60.90;38.00;;;77.60;2227.20;;;;;;4980618;28;20015;-73
2021/01/06 01:51:20;;;;;;;67.00;40.33;;;77.60;2227.20;;;;;;4981544;28;20026;-73
2021/01/06 01:53:52;;;;;;;59.07;37.90;;;77.60;2227.20;;;;;;4980100;28;20467;-73
2021/01/06 01:56:21;;;;;;;59.73;37.80;;;102.50;2227.20;;;;;;4982300;28;20027;-73
2021/01/06 01:58:52;;;;;;;63.37;39.30;;;102.40;2227.20;;;;;;4979481;28;20062;-75
2021/01/06 02:01:20;;;;;;;63.87;38.63;;;102.40;2227.20;;;;;;4982224;28;20037;-72
2021/01/06 02:04:04;;;;;;;67.67;40.43;;;102.40;2227.20;;;;;;4980274;28;20117;-73
2021/01/06 02:06:47;;;;;;;62.80;42.13;;;102.50;2227.20;;;;;;4979021;28;20106;-73
2021/01/06 02:09:21;;;;;;;63.50;41.70;;;102.50;2227.20;;;;;;4980101;28;20037;-73
2021/01/06 02:12:07;;;;;;;61.57;37.30;;;102.50;2227.20;;;;;;4978350;28;20050;-73
2021/01/06 02:14:41;;;;;;;55.07;36.90;;;102.50;2227.20;;;;;;4980356;28;20379;-73
2021/01/06 02:17:13;;;;;;;56.50;37.07;;;102.60;2227.20;;;;;;4980173;28;20026;-73
2021/01/06 02:19:44;;;;;;;56.40;37.87;;;102.50;2227.20;;;;;;4979489;28;20026;-73
2021/01/06 02:22:15;;;;;;;59.77;37.77;;;102.50;2227.20;;;;;;4979857;28;20034;-73
2021/01/06 02:24:42;;;;;;;64.17;38.37;;;102.50;2227.20;;;;;;4980573;28;20027;-73
2021/01/06 02:27:08;;;;;;;58.67;40.47;;;102.60;2227.20;;;;;;4980331;28;20081;-73
2021/01/06 02:29:36;;;;;;;60.27;38.80;;;102.50;2227.20;;;;;;4979603;28;20019;-73
2021/01/06 02:32:04;;;;;;;67.40;44.10;;;102.60;2227.20;;;;;;4980770;28;20015;-73
2021/01/06 02:34:30;;;;;;;63.40;40.50;;;102.60;2227.20;;;;;;4978952;28;20031;-73
2021/01/06 02:36:59;;;;;;;63.93;41.57;;;102.60;2227.20;;;;;;4980565;28;20019;-74
2021/01/06 02:39:25;;;;;;;62.63;39.30;;;102.70;2227.20;;;;;;4979718;28;20039;-72
2021/01/06 02:41:52;;;;;;;59.30;39.87;;;102.70;2227.20;;;;;;4980454;28;20031;-78
2021/01/06 02:44:18;;;;;;;56.13;37.57;;;102.80;2227.20;;;;;;4978078;28;20030;-74
2021/01/06 02:46:45;;;;;;;55.03;37.77;;;102.80;2227.20;;;;;;4977677;28;20357;-73
2021/01/06 02:49:13;;;;;;;59.40;37.60;;;102.90;2227.20;;;;;;4975946;28;20023;-73
2021/01/06 02:51:54;;;;;;;58.33;37.87;;;102.90;2227.20;;;;;;4976549;28;20391;-75
2021/01/06 02:54:28;;;;;;;64.07;38.90;;;102.90;2227.20;;;;;;4976614;28;20027;-73
2021/01/06 02:56:58;;;;;;;58.03;38.60;;;102.90;2227.20;;;;;;4978790;28;20392;-80
2021/01/06 02:59:36;;;;;;;57.93;38.10;;;102.90;2227.20;;;;;;4978539;28;20403;-73
2021/01/06 03:02:03;;;;;;;59.97;38.40;;;102.90;2227.20;;;;;;4979949;28;20110;-74
2021/01/06 03:04:34;;;;;;;55.37;37.13;;;102.90;2227.20;;;;;;4980256;28;20037;-74
2021/01/06 03:07:03;;;;;;;57.87;37.80;;;102.90;2227.20;;;;;;4979643;28;20050;-73
2021/01/06 03:09:29;;;;;;;55.97;38.27;;;102.90;2227.20;;;;;;4977301;28;20062;-73
2021/01/06 03:11:57;;;;;;;56.90;36.60;;;103.00;2227.20;;;;;;4977505;28;20023;-80
2021/01/06 03:14:27;;;;;;;58.90;36.17;;;103.10;2227.20;;;;;;4976633;28;20110;-76
2021/01/06 03:17:00;;;;;;;56.23;37.43;;;103.00;2227.20;;;;;;4977824;28;20501;-80
2021/01/06 03:19:28;;;;;;;62.00;37.85;;;103.10;2227.20;;;;;;4959441;28;20046;-73
2021/01/06 03:21:56;;;;;;;63.07;38.20;;;103.10;2227.20;;;;;;4976951;28;20018;-78
2021/01/06 03:24:30;;;;;;;59.77;37.30;;;103.10;2227.20;;;;;;4976806;28;20022;-73
2021/01/06 03:26:59;;;;;;;62.03;36.70;;;103.10;2227.20;;;;;;4978028;28;20106;-80
2021/01/06 03:29:28;;;;;;;64.53;38.30;;;103.10;2227.20;;;;;;4980404;28;20105;-81
2021/01/06 03:32:00;;;;;;;61.77;39.83;;;103.10;2227.20;;;;;;4978185;28;20030;-81
2021/01/06 03:34:41;;;;;;;59.77;34.57;;;103.10;2227.20;;;;;;4978443;28;20022;-81
2021/01/06 03:37:18;;;;;;;47.67;32.33;;;103.20;2227.20;;;;;;4975798;28;20027;-81
2021/01/06 03:39:58;;;;;;;55.70;32.70;;;103.30;2227.20;;;;;;4975390;28;20034;-73
2021/01/06 03:42:25;;;;;;;56.23;33.70;;;103.30;2227.20;;;;;;4975568;28;20015;-78
2021/01/06 03:44:52;;;;;;;52.03;32.97;;;103.30;2227.20;;;;;;4974965;28;20026;-72
2021/01/06 03:47:27;;;;;;;52.97;31.73;;;103.30;2227.20;;;;;;4975576;28;20094;-73
2021/01/06 03:50:14;;;;;;;46.53;28.50;;;128.00;2252.80;;;;;;4975909;28;20382;-73
2021/01/06 03:52:56;;;;;;;40.33;25.37;;;128.00;2252.80;;;;;;4977276;28;20066;-73
2021/01/06 03:55:48;;;;;;;38.57;24.40;;;128.00;2252.80;;;;;;4976017;28;20054;-78
2021/01/06 03:58:41;;;;;;;38.33;23.07;;;128.10;2252.80;;;;;;4976597;28;20093;-73
2021/01/06 04:01:24;;;;;;;33.40;20.90;;;128.10;2252.80;;;;;;4976313;28;20403;-74
2021/01/06 04:04:24;;;;;;;36.63;20.27;;;128.20;2252.80;;;;;;4975695;28;20022;-82
2021/01/06 04:06:53;;;;;;;42.40;22.57;;;128.30;2252.80;;;;;;4975074;28;20015;-79
2021/01/06 04:09:24;;;;;;;32.73;19.67;;;128.30;2252.80;;;;;;4974943;28;20027;-73
2021/01/06 04:12:01;;;;;;;36.50;20.43;;;128.40;2252.80;;;;;;4975008;28;20030;-72
2021/01/06 04:14:27;;;;;;;38.07;21.60;;;128.50;2252.80;;;;;;4974964;28;20019;-73
2021/01/06 04:16:53;;;;;;;32.93;20.67;;;128.50;2252.80;;;;;;4975052;28;20086;-73
2021/01/06 04:19:18;;;;;;;35.90;21.63;;;128.50;2252.80;;;;;;4973566;28;20561;-72
2021/01/06 04:21:45;;;;;;;38.77;22.13;;;128.60;2252.80;;;;;;4974289;28;20049;-72
2021/01/06 04:24:13;;;;;;;37.93;21.23;;;128.60;2252.80;;;;;;4974964;28;20382;-73
2021/01/06 04:26:40;;;;;;;38.80;22.43;;;128.50;2252.80;;;;;;4974887;28;20018;-74
2021/01/06 04:29:06;;;;;;;36.07;22.97;;;128.50;2252.80;;;;;;4974762;28;20062;-72
2021/01/06 04:31:32;;;;;;;38.63;23.47;;;128.60;2252.80;;;;;;4973384;28;20023;-72
2021/01/06 04:33:58;;;;;;;38.23;22.90;;;128.60;2252.80;;;;;;4974687;28;20030;-73
2021/01/06 04:36:28;;;;;;;41.47;24.30;;;128.50;2252.80;;;;;;4975420;28;20384;-73
2021/01/06 04:39:04;;;;;;;39.47;24.07;;;128.50;2252.80;;;;;;4975884;28;20514;-73
2021/01/06 04:41:37;;;;;;;38.67;24.83;;;128.40;2252.80;;;;;;4975786;28;20031;-73
2021/01/06 04:44:40;;;;;;;40.23;23.57;;;128.40;2252.80;;;;;;4975981;28;20019;-73
2021/01/06 04:47:43;;;;;;;38.17;23.80;;;128.40;2252.80;;;;;;4975312;28;20030;-73
2021/01/06 04:50:39;;;;;;;37.90;24.57;;;128.40;2252.80;;;;;;4976639;28;20031;-84
2021/01/06 04:53:45;;;;;;;40.90;22.67;;;128.40;2252.80;;;;;;4975677;28;20030;-73
2021/01/06 04:56:32;;;;;;;38.00;23.30;;;128.40;2252.80;;;;;;4975136;28;20069;-73
2021/01/06 04:59:44;;;;;;;36.23;22.47;;;128.40;2252.80;;;;;;4975121;28;20051;-73
2021/01/06 05:02:41;;;;;;;39.10;23.53;;;128.50;2252.80;;;;;;4975925;28;20475;-73
2021/01/06 05:05:13;;;;;;;34.10;22.20;;;128.50;2252.80;;;;;;4975007;28;20392;-73
2021/01/06 05:08:12;;;;;;;35.37;22.17;;;128.50;2252.80;;;;;;4975269;28;20494;-73
2021/01/06 05:10:48;;;;;;;39.10;22.60;;;128.50;2252.80;;;;;;4973861;28;20023;-72
2021/01/06 05:13:28;;;;;;;41.17;22.83;;;128.60;2252.80;;;;;;4975520;28;20027;-73
2021/01/06 05:16:12;;;;;;;39.70;23.80;;;128.50;2252.80;;;;;;4976047;28;20380;-76
2021/01/06 05:18:40;;;;;;;34.57;21.70;;;128.50;2252.80;;;;;;4975659;28;20030;-73
2021/01/06 05:21:25;;;;;;;37.63;22.10;;;128.60;2252.80;;;;;;4975018;28;20023;-74
2021/01/06 05:24:00;;;;;;;40.43;24.00;;;128.60;2252.80;;;;;;4974586;28;20062;-79
2021/01/06 05:26:27;;;;;;;34.97;22.10;;;128.70;2252.80;;;;;;4973307;28;20027;-79
2021/01/06 05:28:52;;;;;;;33.77;21.80;;;128.70;2252.80;;;;;;4976193;28;20049;-73
2021/01/06 05:31:19;;;;;;;29.97;20.67;;;128.60;2252.80;;;;;;4974811;28;20471;-72
2021/01/06 05:33:48;;;;;;;29.50;19.97;;;128.70;2252.80;;;;;;4976383;28;20106;-72
2021/01/06 05:36:29;;;;;;;28.73;18.60;;;128.70;2252.80;;;;;;4978584;28;20126;-73
2021/01/06 05:38:55;;;;;;;28.63;17.20;;;128.70;2252.80;;;;;;4976777;28;20110;-74
2021/01/06 05:41:21;;;;;;;26.90;16.57;;;128.70;2252.80;;;;;;4978581;28;20023;-73
2021/01/06 05:43:53;;;;;;;24.37;15.83;;;128.70;2252.80;;;;;;4978949;28;20031;-73
2021/01/06 05:46:30;;;;;;;24.33;16.97;;;128.70;2252.80;;;;;;4978973;28;20030;-73
2021/01/06 05:49:01;;;;;;;27.10;17.67;;;128.70;2252.80;;;;;;4977294;28;20105;-73
2021/01/06 05:51:41;;;;;;;26.87;16.83;;;128.70;2252.80;;;;;;4978201;28;20468;-77
2021/01/06 05:54:27;;;;;;;22.93;15.37;;;128.70;2252.80;;;;;;4977405;28;20038;-77
2021/01/06 05:57:06;;;;;;;21.87;14.70;;;128.70;2252.80;;;;;;4977479;28;20050;-72
2021/01/06 05:59:48;;;;;;;23.17;14.53;;;128.70;2252.80;;;;;;4975621;28;20053;-75
2021/01/06 06:02:30;;;;;;;24.50;13.80;;;128.80;2252.80;;;;;;4976909;28;20074;-78
2021/01/06 06:05:17;;;;;;;19.23;12.80;;;128.80;2252.80;;;;;;4976961;28;20387;-77
2021/01/06 06:08:07;;;;;;;19.60;13.40;;;128.80;2252.80;;;;;;4975745;28;20458;-85
2021/01/06 06:11:03;;;;;;;22.00;14.73;;;153.60;2252.80;;;;;;4977167;28;20035;-83
2021/01/06 06:13:48;;;;;;;20.93;13.20;;;153.60;2252.80;;;;;;4977076;28;20018;-73
2021/01/06 06:16:21;;;;;;;;;;;153.60;2252.80;;;;;;4977718;28;20487;-83
2021/01/06 06:19:30;;;;;;;23.67;12.30;;;153.70;2252.80;;;;;;4977592;28;20017;-82
2021/01/06 06:22:29;;;;;;;22.63;13.93;;;153.70;2252.80;;;;;;4936372;29;20047;-83
2021/01/06 06:25:04;;;;;;;23.33;13.40;;;153.70;2252.80;;;;;;4965973;28;20038;-82
2021/01/06 06:27:39;;;;;;;20.97;11.80;;;153.60;2252.80;;;;;;4976998;28;20023;-85
2021/01/06 06:30:10;;;;;;;17.43;9.67;;;153.70;2252.80;;;;;;4975648;28;20027;-81
2021/01/06 06:32:38;;;;;;;11.63;8.03;;;153.70;2252.80;;;;;;4975772;28;20027;-84
2021/01/06 06:35:36;;;;;;;11.80;6.13;;;153.80;2252.80;;;;;;4976760;28;20022;-83
2021/01/06 06:38:08;;;;;;;11.87;6.13;;;153.90;2252.80;;;;;;4973627;28;20043;-73
2021/01/06 06:41:04;;;;;;;11.43;6.30;;;154.00;2252.80;;;;;;4976790;28;20428;-84
2021/01/06 06:43:39;;;;;;;14.32;7.65;;;154.00;2252.80;;;;;;4975687;28;20022;-82
2021/01/06 06:46:26;;;;;;;18.13;9.97;;;154.10;2252.80;;;;;;4976159;28;20090;-82
2021/01/06 06:49:13;;;;;;;17.33;9.30;;;154.10;2252.80;;;;;;4976480;28;20022;-72
2021/01/06 06:51:44;;;;;;;14.70;9.07;;;154.10;2252.80;;;;;;4974980;28;20019;-73
2021/01/06 06:54:29;;;;;;;13.23;8.15;;;154.10;2252.80;;;;;;4976300;28;20034;-73
2021/01/06 06:57:02;;;;;;;49.80;24.58;;;154.20;2252.80;;;;;;4991086;28;20030;-80
2021/01/06 06:59:40;;;;;;;34.25;17.58;;;154.30;2252.80;;;;;;4991939;28;20038;-81
2021/01/06 07:02:06;;;;;;;57.00;25.37;;;154.30;2252.80;;;;;;4994630;28;20049;-82
2021/01/06 07:04:42;;;;;;;38.40;21.58;;;154.30;2252.80;;;;;;4995340;28;20470;-74
2021/01/06 07:07:37;;;;;;;31.47;17.00;;;154.40;2252.80;;;;;;4994281;28;20036;-77
2021/01/06 07:10:25;;;;;;;40.87;24.37;;;154.40;2252.80;;;;;;4994441;28;20026;-76
2021/01/06 07:13:00;;;;;;;36.20;22.17;;;154.40;2252.80;;;;;;4995231;28;20117;-78
2021/01/06 07:15:31;;;;;;;36.67;20.63;;;154.40;2252.80;;;;;;4985592;28;20030;-82
2021/01/06 07:17:57;;;;;;;33.37;19.00;;;154.40;2252.80;;;;;;4994291;28;20022;-73
2021/01/06 07:20:37;;;;;;;28.33;18.00;;;154.40;2252.80;;;;;;4984094;28;20061;-86
2021/01/06 07:23:18;;;;;;;32.83;18.30;;;154.40;2252.80;;;;;;4975984;28;20113;-82
2021/01/06 07:25:55;;;;;;;28.50;18.65;;;154.40;2252.80;;;;;;4975654;28;20041;-72
2021/01/06 07:28:21;;;;;;;31.07;20.90;;;154.40;2252.80;;;;;;4978263;28;20014;-82
2021/01/06 07:30:50;;;;;;;34.45;21.58;;;154.30;2252.80;;;;;;4975694;28;20130;-84
2021/01/06 07:33:29;;;;;;;35.38;21.27;;;154.30;2252.80;;;;;;4974351;28;20022;-87
2021/01/06 07:36:15;;;;;;;31.10;21.30;;;154.20;2252.80;;;;;;4975616;28;20022;-77
2021/01/06 07:38:43;;;;;;;35.40;23.70;;;154.20;2252.80;;;;;;4975398;28;20031;-73
2021/01/06 07:41:10;;;;;;;42.97;24.77;;;154.20;2252.80;;;;;;4974269;28;20027;-74
2021/01/06 07:43:44;;;;;;;46.07;28.10;;;154.20;2252.80;;;;;;4986702;28;20109;-84
2021/01/06 07:46:18;;;;;;;43.60;26.83;;;154.20;2252.80;;;;;;4995098;28;20030;-79
2021/01/06 07:48:44;;;;;;;40.35;23.60;;;154.20;2252.80;;;;;;4995014;28;20033;-81
2021/01/06 07:51:25;;;;;;;61.75;37.17;;;154.20;2252.80;;;;;;4993512;28;20030;-72
2021/01/06 07:54:03;;;;;;;66.83;38.17;;;154.20;2252.80;;;;;;4993926;28;20031;-73
2021/01/06 07:56:43;;;;;;;88.32;46.42;;;154.30;2252.80;;;;;;4997947;28;20026;-82
2021/01/06 07:59:34;;;;;;;43.60;27.80;;;154.30;2252.80;;;;;;5002874;28;20383;-94
2021/01/06 08:02:10;;;;;;;44.50;26.47;;;154.40;2252.80;;;;;;4997683;28;20044;-72
2021/01/06 08:05:02;;;;;;;47.55;29.60;;;154.30;2252.80;;;;;;4994698;28;20101;-86
2021/01/06 08:07:28;;;;;;;46.80;28.53;;;154.30;2252.80;;;;;;4971622;28;20078;-72
2021/01/06 08:09:54;;;;;;;49.30;29.67;;;154.30;2252.80;;;;;;4993279;28;20088;-85
2021/01/06 08:12:26;;;;;;;66.15;37.72;;;154.40;2252.80;;;;;;4994533;28;20089;-86
2021/01/06 08:15:19;;;;;;;82.32;45.65;;;154.40;2252.80;;;;;;4991877;28;20026;-84
2021/01/06 08:18:20;;;;;;;85.95;45.60;;;154.40;2252.80;;;;;;4993037;28;20081;-92
2021/01/06 08:20:53;;;;;;;80.05;43.15;;;154.40;2252.80;;;;;;4974713;28;20502;-76
2021/01/06 08:23:27;;;;;;;66.70;39.28;;;154.40;2252.80;;;;;;4994607;28;20026;-82
2021/01/06 08:25:56;;;;;;;65.43;35.60;;;154.50;2252.80;;;;;;4993865;28;20030;-74
2021/01/06 08:28:29;;;;;;;48.13;30.25;;;154.50;2252.80;;;;;;4993947;28;20161;-69
2021/01/06 08:31:19;;;;;;;46.97;28.38;;;154.50;2252.80;;;;;;4994510;28;20018;-70
2021/01/06 08:33:55;;;;;;;52.57;31.83;;;154.50;2252.80;;;;;;4993999;28;20030;-69
2021/01/06 08:36:23;;;;;;;48.77;29.37;;;154.50;2252.80;;;;;;4992259;28;20053;-69
2021/01/06 08:39:24;;;;;;;63.57;37.60;;;154.50;2252.80;;;;;;4993597;28;20037;-69
2021/01/06 08:41:51;;;;;;;100.63;60.92;;;154.40;2252.80;;;;;;4993963;28;20074;-69
2021/01/06 08:44:37;;;;;;;152.68;96.72;;;154.40;2252.80;;;;;;4993915;28;20195;-69
2021/01/06 08:47:06;;;;;;;296.63;202.77;;;154.30;2252.80;;;;;;4993928;28;20057;-69
2021/01/06 08:49:38;;;;;;;85.50;53.00;;;154.30;2252.80;;;;;;4993891;28;20097;-69
2021/01/06 08:52:21;;;;;;;82.57;57.03;;;154.30;2252.80;;;;;;4993895;28;20101;-69
2021/01/06 08:55:05;;;;;;;56.05;36.47;;;154.30;2252.80;;;;;;4994205;28;20097;-69
2021/01/06 08:57:34;;;;;;;47.22;30.40;;;154.40;2252.80;;;;;;4993912;28;20027;-69
2021/01/06 09:00:24;;;;;;;41.92;28.58;;;154.40;2252.80;;;;;;4993498;28;20057;-69
2021/01/06 09:02:54;;;;;;;35.83;24.50;;;154.40;2252.80;;;;;;4992567;28;20129;-69
2021/01/06 09:05:51;;;;;;;45.73;28.30;;;154.40;2252.80;;;;;;4994362;28;20030;-69
2021/01/06 09:08:45;;;;;;;37.63;23.67;;;154.40;2252.80;;;;;;4995222;28;20510;-69
2021/01/06 09:11:28;;;;;;;39.87;23.90;;;154.40;2252.80;;;;;;4997515;28;20034;-69
2021/01/06 09:14:00;;;;;;;46.00;24.40;;;154.40;2252.80;;;;;;4998024;28;20081;-69
2021/01/06 09:16:38;;;;;;;43.23;23.50;;;154.40;2252.80;;;;;;4997367;28;20252;-70
2021/01/06 09:19:25;;;;;;;35.97;19.47;;;154.40;2252.80;;;;;;4996016;28;20034;-69
2021/01/06 09:21:52;;;;;;;38.45;17.90;;;154.40;2252.80;;;;;;4997527;28;20030;-69
2021/01/06 09:24:33;;;;;;;21.40;12.17;;;154.40;2252.80;;;;;;4997262;28;20031;-69
2021/01/06 09:27:17;;;;;;;32.05;15.65;;;154.50;2252.80;;;;;;4997144;28;20475;-70
2021/01/06 09:29:43;;;;;;;;;;;179.20;2252.80;;;;;;4997584;28;20077;-70
2021/01/06 09:32:18;;;;;;;40.73;18.90;;;179.20;2252.80;;;;;;4997328;28;20328;-69
2021/01/06 09:34:48;;;;;;;38.07;18.07;;;179.20;2252.80;;;;;;4997357;28;20116;-70
2021/01/06 09:37:26;;;;;;;34.00;18.57;;;179.30;2252.80;;;;;;4997333;28;20495;-70
2021/01/06 09:39:54;;;;;;;30.52;14.88;;;179.30;2252.80;;;;;;4996845;28;20034;-69
2021/01/06 09:42:21;;;;;;;35.25;16.67;;;179.40;2252.80;;;;;;4996883;28;20032;-70
2021/01/06 09:44:48;;;;;;;30.08;15.93;;;179.40;2252.80;;;;;;4997092;28;20030;-70
2021/01/06 09:47:37;;;;;;;20.40;10.55;;;179.50;2252.80;;;;;;4995552;28;20109;-69
2021/01/06 09:50:28;;;;;;;12.93;8.10;;;179.50;2252.80;;;;;;4996822;28;20065;-69
2021/01/06 09:52:57;;;;;;;13.13;7.95;;;179.60;2252.80;;;;;;4992048;28;20454;-70
2021/01/06 09:55:26;;;;;;;26.30;14.32;;;179.70;2252.80;;;;;;4996949;28;20374;-70
2021/01/06 09:58:32;;;;;;;34.78;19.27;;;179.70;2252.80;;;;;;4996645;28;20022;-69
2021/01/06 10:01:24;;;;;;;60.70;32.83;;;179.80;2252.80;;;;;;4995752;28;20046;-70
2021/01/06 10:03:53;;;;;;;48.70;25.83;;;179.80;2252.80;;;;;;4996558;28;20157;-70
2021/01/06 10:06:37;;;;;;;30.65;18.27;;;179.80;2252.80;;;;;;4996446;28;20023;-69
2021/01/06 10:09:41;;;;;;;21.85;13.93;;;179.80;2252.80;;;;;;4996477;28;20038;-70
2021/01/06 10:12:24;;;;;;;29.33;15.77;;;179.80;2252.80;;;;;;4987580;28;20045;-70
2021/01/06 10:14:59;;;;;;;48.58;23.33;;;179.80;2252.80;;;;;;4996328;28;20482;-69
2021/01/06 10:17:34;;;;;;;55.40;23.70;;;179.80;2252.80;;;;;;4996294;28;20089;-69
2021/01/06 10:20:13;;;;;;;44.28;18.02;;;179.80;2252.80;;;;;;4995385;28;20088;-69
2021/01/06 10:22:59;;;;;;;43.17;21.75;;;179.80;2252.80;;;;;;4996181;28;20422;-70
2021/01/06 10:25:41;;;;;;;35.17;20.77;;;179.90;2252.80;;;;;;4996230;28;20030;-69
2021/01/06 10:28:22;;;;;;;30.15;20.48;;;179.80;2252.80;;;;;;4996088;28;20023;-70
2021/01/06 10:31:15;;;;;;;35.28;19.40;;;179.90;2252.80;;;;;;4996030;28;20027;-69
2021/01/06 10:34:03;;;;;;;31.42;16.98;;;179.90;2252.80;;;;;;4996336;28;20344;-70
2021/01/06 10:37:04;;;;;;;53.15;25.77;;;179.80;2252.80;;;;;;4996184;28;20025;-70
2021/01/06 10:39:40;;;;;;;50.63;23.90;;;179.80;2252.80;;;;;;4995861;28;20134;-70
2021/01/06 10:42:18;;;;;;;48.55;24.25;;;179.90;2252.80;;;;;;4995843;28;20018;-69
2021/01/06 10:44:52;;;;;;;40.60;19.67;;;179.90;2252.80;;;;;;4995775;28;20041;-69
2021/01/06 10:47:30;;;;;;;35.33;17.88;;;179.90;2252.80;;;;;;4995705;28;20068;-69
2021/01/06 10:50:31;;;;;;;39.20;18.55;;;179.90;2252.80;;;;;;4995933;28;20498;-70
2021/01/06 10:53:18;;;;;;;31.05;16.35;;;179.80;2252.80;;;;;;4993462;28;20076;-70
2021/01/06 10:56:02;;;;;;;31.55;18.10;;;179.80;2252.80;;;;;;4995565;28;20065;-70
2021/01/06 10:58:34;;;;;;;31.52;19.33;;;179.80;2252.80;;;;;;4995320;28;20045;-70
2021/01/06 11:01:24;;;;;;;28.30;17.17;;;179.90;2252.80;;;;;;4995824;28;20164;-70
2021/01/06 11:04:04;;;;;;;32.53;20.90;;;179.90;2252.80;;;;;;4994188;28;20023;-70
2021/01/06 11:06:44;;;;;;;34.72;20.98;;;179.80;2252.80;;;;;;4995338;28;20022;-69
2021/01/06 11:09:36;;;;;;;39.95;22.95;;;179.90;2252.80;;;;;;4995325;28;20018;-70
2021/01/06 11:12:39;;;;;;;36.45;22.52;;;179.90;2252.80;;;;;;4995213;28;20105;-69
2021/01/06 11:15:29;;;;;;;40.05;22.10;;;180.00;2252.80;;;;;;4993927;28;20030;-69
2021/01/06 11:18:18;;;;;;;143.07;68.20;;;180.00;2252.80;;;;;;4995143;28;20109;-70
2021/01/06 11:21:19;;;;;;;198.73;92.50;;;180.10;2252.80;;;;;;4993840;28;20046;-70
2021/01/06 11:23:48;;;;;;;57.03;28.48;;;180.10;2252.80;;;;;;4960811;28;20045;-69
2021/01/06 11:26:32;;;;;;;52.83;27.73;;;180.10;2252.80;;;;;;4993748;28;20045;-70
2021/01/06 11:29:19;;;;;;;47.92;26.10;;;180.10;2252.80;;;;;;4993722;28;20034;-69
2021/01/06 11:32:17;;;;;;;67.38;40.00;;;180.10;2252.80;;;;;;4994802;28;20174;-70
2021/01/06 11:34:47;;;;;;;95.45;56.53;;;180.10;2252.80;;;;;;4991713;28;20105;-70
2021/01/06 11:37:33;;;;;;;35.47;21.67;;;204.80;2252.80;;;;;;4995189;28;20022;-70
2021/01/06 11:39:59;;;;;;;23.50;15.38;;;204.80;2252.80;;;;;;4993440;28;20096;-69
2021/01/06 11:42:47;;;;;;;32.17;22.08;;;204.80;2252.80;;;;;;4994890;28;20023;-70
2021/01/06 11:45:16;;;;;;;30.80;19.92;;;204.80;2252.80;;;;;;4993447;28;20030;-70
2021/01/06 11:48:01;;;;;;;22.25;14.48;;;204.80;2252.80;;;;;;4994663;28;20462;-70
2021/01/06 11:50:45;;;;;;;26.00;16.67;;;204.80;2252.80;;;;;;4994668;28;20022;-70
2021/01/06 11:53:17;;;;;;;47.30;24.92;;;204.80;2252.80;;;;;;4994510;28;20040;-69
2021/01/06 11:56:01;;;;;;;59.55;29.33;;;204.90;2252.80;;;;;;4993221;28;20030;-70
2021/01/06 11:58:35;;;;;;;50.20;23.67;;;204.90;2252.80;;;;;;4994544;28;20018;-69
2021/01/06 12:01:21;;;;;;;71.82;32.05;;;204.90;2252.80;;;;;;4994389;28;20170;-70
2021/01/06 12:04:02;;;;;;;81.63;34.60;;;204.90;2252.80;;;;;;4994519;28;20414;-70
2021/01/06 12:06:52;;;;;;;79.78;33.60;;;205.00;2252.80;;;;;;4994231;28;20390;-70
2021/01/06 12:09:55;;;;;;;72.45;34.35;;;205.00;2252.80;;;;;;4994384;28;20030;-70
2021/01/06 12:12:59;;;;;;;54.72;25.45;;;205.00;2252.80;;;;;;4992998;28;20026;-70
2021/01/06 12:15:48;;;;;;;69.55;31.30;;;205.10;2252.80;;;;;;4994178;28;20022;-69
2021/01/06 12:18:45;;;;;;;62.63;27.15;;;205.10;2252.80;;;;;;4994492;28;20089;-69
2021/01/06 12:21:33;;;;;;;61.97;27.50;;;205.20;2252.80;;;;;;4994168;28;20023;-70
2021/01/06 12:24:21;;;;;;;58.92;27.52;;;205.40;2252.80;;;;;;4988564;28;20045;-69
2021/01/06 12:27:23;;;;;;;53.88;26.27;;;205.40;2252.80;;;;;;4994111;28;20022;-70
2021/01/06 12:29:53;;;;;;;64.57;32.33;;;205.40;2252.80;;;;;;4994072;28;20092;-70
2021/01/06 12:32:33;;;;;;;24.98;15.30;;;205.40;2252.80;;;;;;4994383;28;20562;-70
2021/01/06 12:35:37;;;;;;;22.75;13.90;;;205.30;2252.80;;;;;;4994343;28;20022;-70
2021/01/06 12:38:22;;;;;;;24.58;14.30;;;205.40;2252.80;;;;;;4994346;28;20057;-69
2021/01/06 12:40:51;;;;;;;23.60;15.65;;;205.30;2252.80;;;;;;4994309;28;20039;-70
2021/01/06 12:43:28;;;;;;;28.48;17.55;;;205.30;2252.80;;;;;;4995562;28;20038;-70
2021/01/06 12:46:27;;;;;;;23.00;16.35;;;205.40;2252.80;;;;;;4997998;28;20030;-70
2021/01/06 12:49:25;;;;;;;30.88;17.50;;;205.50;2252.80;;;;;;4984395;28;20034;-70
2021/01/06 12:52:21;;;;;;;26.08;16.70;;;205.50;2252.80;;;;;;4989487;28;20042;-70